sensor_id;sensor_type;location;lat;lon;timestamp;P1;durP1;ratioP1;P2;durP2;ratioP2
14001;SDS011;7076;51.280;12.584;2024-03-06T00:05:27;11.90;;;7.90;;
14001;SDS011;7076;51.280;12.584;2024-03-06T00:10:50;11.87;;;6.90;;
14001;SDS011;7076;51.280;12.584;2024-03-06T00:16:06;11.32;;;7.40;;
14001;SDS011;7076;51.280;12.584;2024-03-06T00:21:37;9.95;;;7.50;;
14001;SDS011;7076;51.280;12.584;2024-03-06T00:26:53;15.60;;;7.80;;
14001;SDS011;7076;51.280;12.584;2024-03-06T00:32:23;12.90;;;7.67;;
14001;SDS011;7076;51.280;12.584;2024-03-06T00:37:47;15.40;;;8.87;;
14001;SDS011;7076;51.280;12.584;2024-03-06T00:43:17;13.63;;;8.37;;
14001;SDS011;7076;51.280;12.584;2024-03-06T00:48:33;12.25;;;7.78;;
14001;SDS011;7076;51.280;12.584;2024-03-06T00:54:04;14.93;;;7.93;;
14001;SDS011;7076;51.280;12.584;2024-03-06T00:59:20;10.53;;;7.47;;
14001;SDS011;7076;51.280;12.584;2024-03-06T01:04:50;14.37;;;8.00;;
14001;SDS011;7076;51.280;12.584;2024-03-06T01:10:14;12.17;;;7.90;;
14001;SDS011;7076;51.280;12.584;2024-03-06T01:15:44;14.90;;;8.13;;
14001;SDS011;7076;51.280;12.584;2024-03-06T01:21:00;11.20;;;7.60;;
14001;SDS011;7076;51.280;12.584;2024-03-06T01:26:31;12.93;;;8.73;;
14001;SDS011;7076;51.280;12.584;2024-03-06T01:32:02;12.70;;;8.73;;
14001;SDS011;7076;51.280;12.584;2024-03-06T01:37:18;12.70;;;8.77;;
14001;SDS011;7076;51.280;12.584;2024-03-06T01:42:49;16.47;;;10.40;;
14001;SDS011;7076;51.280;12.584;2024-03-06T01:48:06;17.63;;;8.80;;
14001;SDS011;7076;51.280;12.584;2024-03-06T01:53:36;16.07;;;8.80;;
14001;SDS011;7076;51.280;12.584;2024-03-06T01:58:53;16.63;;;10.07;;
14001;SDS011;7076;51.280;12.584;2024-03-06T02:04:32;14.23;;;8.33;;
14001;SDS011;7076;51.280;12.584;2024-03-06T02:10:02;14.00;;;9.03;;
14001;SDS011;7076;51.280;12.584;2024-03-06T02:15:20;13.27;;;8.27;;
14001;SDS011;7076;51.280;12.584;2024-03-06T02:20:51;14.50;;;9.23;;
14001;SDS011;7076;51.280;12.584;2024-03-06T02:26:14;18.63;;;9.40;;
14001;SDS011;7076;51.280;12.584;2024-03-06T02:31:44;14.37;;;8.80;;
14001;SDS011;7076;51.280;12.584;2024-03-06T02:37:08;14.87;;;8.97;;
14001;SDS011;7076;51.280;12.584;2024-03-06T02:42:38;14.57;;;8.90;;
14001;SDS011;7076;51.280;12.584;2024-03-06T02:47:54;15.37;;;9.73;;
14001;SDS011;7076;51.280;12.584;2024-03-06T02:53:25;15.20;;;9.57;;
14001;SDS011;7076;51.280;12.584;2024-03-06T02:58:42;14.00;;;8.73;;
14001;SDS011;7076;51.280;12.584;2024-03-06T03:04:12;16.50;;;10.10;;
14001;SDS011;7076;51.280;12.584;2024-03-06T03:09:29;11.93;;;9.37;;
14001;SDS011;7076;51.280;12.584;2024-03-06T03:15:00;15.00;;;8.73;;
14001;SDS011;7076;51.280;12.584;2024-03-06T03:20:16;13.97;;;8.83;;
14001;SDS011;7076;51.280;12.584;2024-03-06T03:25:47;15.63;;;9.13;;
14001;SDS011;7076;51.280;12.584;2024-03-06T03:31:04;13.00;;;9.17;;
14001;SDS011;7076;51.280;12.584;2024-03-06T03:36:34;15.87;;;9.17;;
14001;SDS011;7076;51.280;12.584;2024-03-06T03:41:52;13.97;;;9.20;;
14001;SDS011;7076;51.280;12.584;2024-03-06T03:47:22;15.43;;;9.40;;
14001;SDS011;7076;51.280;12.584;2024-03-06T03:52:38;20.40;;;11.97;;
14001;SDS011;7076;51.280;12.584;2024-03-06T03:58:09;19.70;;;9.97;;
14001;SDS011;7076;51.280;12.584;2024-03-06T04:03:33;15.33;;;9.43;;
14001;SDS011;7076;51.280;12.584;2024-03-06T04:09:04;14.93;;;9.13;;
14001;SDS011;7076;51.280;12.584;2024-03-06T04:14:21;14.77;;;9.43;;
14001;SDS011;7076;51.280;12.584;2024-03-06T04:19:51;21.97;;;13.13;;
14001;SDS011;7076;51.280;12.584;2024-03-06T04:25:08;16.87;;;10.73;;
14001;SDS011;7076;51.280;12.584;2024-03-06T04:30:39;15.87;;;9.63;;
14001;SDS011;7076;51.280;12.584;2024-03-06T04:35:55;14.97;;;9.00;;
14001;SDS011;7076;51.280;12.584;2024-03-06T04:41:25;17.37;;;8.80;;
14001;SDS011;7076;51.280;12.584;2024-03-06T04:46:42;14.73;;;9.40;;
14001;SDS011;7076;51.280;12.584;2024-03-06T04:52:12;18.53;;;8.70;;
14001;SDS011;7076;51.280;12.584;2024-03-06T04:57:28;15.20;;;9.37;;
14001;SDS011;7076;51.280;12.584;2024-03-06T05:02:59;20.17;;;10.43;;
14001;SDS011;7076;51.280;12.584;2024-03-06T05:08:32;14.40;;;9.13;;
14001;SDS011;7076;51.280;12.584;2024-03-06T05:14:19;16.80;;;9.47;;
14001;SDS011;7076;51.280;12.584;2024-03-06T05:19:53;15.10;;;9.60;;
14001;SDS011;7076;51.280;12.584;2024-03-06T05:25:40;14.97;;;9.63;;
14001;SDS011;7076;51.280;12.584;2024-03-06T05:31:20;18.23;;;11.07;;
14001;SDS011;7076;51.280;12.584;2024-03-06T05:37:02;15.17;;;8.43;;
14001;SDS011;7076;51.280;12.584;2024-03-06T05:42:36;15.93;;;9.83;;
14001;SDS011;7076;51.280;12.584;2024-03-06T05:48:23;16.23;;;9.97;;
14001;SDS011;7076;51.280;12.584;2024-03-06T05:53:58;19.30;;;10.27;;
14001;SDS011;7076;51.280;12.584;2024-03-06T05:59:40;18.23;;;10.77;;
14001;SDS011;7076;51.280;12.584;2024-03-06T06:05:03;20.10;;;11.17;;
14001;SDS011;7076;51.280;12.584;2024-03-06T06:10:33;18.43;;;10.60;;
14001;SDS011;7076;51.280;12.584;2024-03-06T06:16:03;17.83;;;9.50;;
14001;SDS011;7076;51.280;12.584;2024-03-06T06:21:20;21.97;;;10.30;;
14001;SDS011;7076;51.280;12.584;2024-03-06T06:26:51;15.87;;;9.00;;
14001;SDS011;7076;51.280;12.584;2024-03-06T06:32:21;17.20;;;10.93;;
14001;SDS011;7076;51.280;12.584;2024-03-06T06:37:37;18.37;;;10.97;;
14001;SDS011;7076;51.280;12.584;2024-03-06T06:43:08;18.37;;;11.03;;
14001;SDS011;7076;51.280;12.584;2024-03-06T06:48:24;17.10;;;10.40;;
14001;SDS011;7076;51.280;12.584;2024-03-06T06:53:55;18.60;;;10.83;;
14001;SDS011;7076;51.280;12.584;2024-03-06T06:59:12;21.93;;;11.03;;
14001;SDS011;7076;51.280;12.584;2024-03-06T07:04:43;19.70;;;11.77;;
14001;SDS011;7076;51.280;12.584;2024-03-06T07:10:06;18.00;;;11.13;;
14001;SDS011;7076;51.280;12.584;2024-03-06T07:15:38;22.77;;;12.70;;
14001;SDS011;7076;51.280;12.584;2024-03-06T07:20:54;19.63;;;10.87;;
14001;SDS011;7076;51.280;12.584;2024-03-06T07:26:24;20.97;;;11.97;;
14001;SDS011;7076;51.280;12.584;2024-03-06T07:31:55;18.57;;;12.40;;
14001;SDS011;7076;51.280;12.584;2024-03-06T07:37:11;19.43;;;10.80;;
14001;SDS011;7076;51.280;12.584;2024-03-06T07:42:41;19.03;;;12.30;;
14001;SDS011;7076;51.280;12.584;2024-03-06T07:47:58;23.23;;;11.57;;
14001;SDS011;7076;51.280;12.584;2024-03-06T07:53:28;22.67;;;13.73;;
14001;SDS011;7076;51.280;12.584;2024-03-06T07:58:51;20.67;;;12.67;;
14001;SDS011;7076;51.280;12.584;2024-03-06T08:04:22;20.20;;;12.67;;
14001;SDS011;7076;51.280;12.584;2024-03-06T08:09:39;20.73;;;12.47;;
14001;SDS011;7076;51.280;12.584;2024-03-06T08:15:10;23.20;;;14.77;;
14001;SDS011;7076;51.280;12.584;2024-03-06T08:20:28;22.70;;;13.27;;
14001;SDS011;7076;51.280;12.584;2024-03-06T08:25:59;23.00;;;13.87;;
14001;SDS011;7076;51.280;12.584;2024-03-06T08:31:29;23.03;;;13.50;;
14001;SDS011;7076;51.280;12.584;2024-03-06T08:36:46;20.87;;;12.87;;
14001;SDS011;7076;51.280;12.584;2024-03-06T08:42:17;24.23;;;13.97;;
14001;SDS011;7076;51.280;12.584;2024-03-06T08:47:40;27.97;;;14.87;;
14001;SDS011;7076;51.280;12.584;2024-03-06T08:52:57;31.47;;;15.40;;
14001;SDS011;7076;51.280;12.584;2024-03-06T08:58:27;29.10;;;15.80;;
14001;SDS011;7076;51.280;12.584;2024-03-06T09:03:43;22.93;;;14.30;;
14001;SDS011;7076;51.280;12.584;2024-03-06T09:09:14;24.30;;;14.33;;
14001;SDS011;7076;51.280;12.584;2024-03-06T09:14:30;28.43;;;14.30;;
14001;SDS011;7076;51.280;12.584;2024-03-06T09:20:00;26.87;;;15.17;;
14001;SDS011;7076;51.280;12.584;2024-03-06T09:25:25;28.10;;;16.03;;
14001;SDS011;7076;51.280;12.584;2024-03-06T09:30:55;25.10;;;14.67;;
14001;SDS011;7076;51.280;12.584;2024-03-06T09:36:11;28.60;;;17.13;;
14001;SDS011;7076;51.280;12.584;2024-03-06T09:41:42;25.20;;;16.87;;
14001;SDS011;7076;51.280;12.584;2024-03-06T09:46:59;33.60;;;16.83;;
14001;SDS011;7076;51.280;12.584;2024-03-06T09:52:32;27.93;;;16.60;;
14001;SDS011;7076;51.280;12.584;2024-03-06T09:57:58;26.50;;;17.27;;
14001;SDS011;7076;51.280;12.584;2024-03-06T10:03:28;27.13;;;16.50;;
14001;SDS011;7076;51.280;12.584;2024-03-06T10:08:44;28.67;;;17.67;;
14001;SDS011;7076;51.280;12.584;2024-03-06T10:14:15;26.38;;;16.40;;
14001;SDS011;7076;51.280;12.584;2024-03-06T10:19:39;26.65;;;16.05;;
14001;SDS011;7076;51.280;12.584;2024-03-06T10:25:12;31.77;;;17.05;;
14001;SDS011;7076;51.280;12.584;2024-03-06T10:30:29;28.00;;;17.02;;
14001;SDS011;7076;51.280;12.584;2024-03-06T10:35:59;27.15;;;16.33;;
14001;SDS011;7076;51.280;12.584;2024-03-06T10:41:15;33.60;;;16.77;;
14001;SDS011;7076;51.280;12.584;2024-03-06T10:46:47;37.10;;;20.13;;
14001;SDS011;7076;51.280;12.584;2024-03-06T10:52:08;31.50;;;17.92;;
14001;SDS011;7076;51.280;12.584;2024-03-06T10:57:44;30.48;;;18.23;;
14001;SDS011;7076;51.280;12.584;2024-03-06T11:03:09;35.17;;;17.40;;
14001;SDS011;7076;51.280;12.584;2024-03-06T11:08:40;28.60;;;17.45;;
14001;SDS011;7076;51.280;12.584;2024-03-06T11:13:59;34.95;;;18.42;;
14001;SDS011;7076;51.280;12.584;2024-03-06T11:19:31;29.48;;;17.15;;
14001;SDS011;7076;51.280;12.584;2024-03-06T11:24:48;32.13;;;17.23;;
14001;SDS011;7076;51.280;12.584;2024-03-06T11:30:19;28.05;;;17.65;;
14001;SDS011;7076;51.280;12.584;2024-03-06T11:35:44;26.10;;;17.30;;
14001;SDS011;7076;51.280;12.584;2024-03-06T11:41:47;26.35;;;17.92;;
14001;SDS011;7076;51.280;12.584;2024-03-06T11:47:05;23.23;;;16.85;;
14001;SDS011;7076;51.280;12.584;2024-03-06T11:52:36;21.45;;;14.45;;
14001;SDS011;7076;51.280;12.584;2024-03-06T11:57:52;22.75;;;16.23;;
14001;SDS011;7076;51.280;12.584;2024-03-06T12:03:22;19.92;;;15.15;;
14001;SDS011;7076;51.280;12.584;2024-03-06T12:08:48;20.02;;;15.35;;
14001;SDS011;7076;51.280;12.584;2024-03-06T12:14:18;20.77;;;15.77;;
14001;SDS011;7076;51.280;12.584;2024-03-06T12:19:36;18.50;;;14.45;;
14001;SDS011;7076;51.280;12.584;2024-03-06T12:25:07;20.10;;;13.20;;
14001;SDS011;7076;51.280;12.584;2024-03-06T12:30:24;19.13;;;13.40;;
14001;SDS011;7076;51.280;12.584;2024-03-06T12:36:04;19.42;;;15.88;;
14001;SDS011;7076;51.280;12.584;2024-03-06T12:41:23;21.52;;;14.90;;
14001;SDS011;7076;51.280;12.584;2024-03-06T12:46:53;18.90;;;16.90;;
14001;SDS011;7076;51.280;12.584;2024-03-06T12:52:16;16.33;;;13.45;;
14001;SDS011;7076;51.280;12.584;2024-03-06T12:57:47;17.60;;;12.95;;
14001;SDS011;7076;51.280;12.584;2024-03-06T13:03:05;18.48;;;13.23;;
14001;SDS011;7076;51.280;12.584;2024-03-06T13:08:35;24.65;;;14.07;;
14001;SDS011;7076;51.280;12.584;2024-03-06T13:13:52;18.95;;;13.88;;
14001;SDS011;7076;51.280;12.584;2024-03-06T13:19:22;21.55;;;15.73;;
14001;SDS011;7076;51.280;12.584;2024-03-06T13:24:39;19.92;;;13.32;;
14001;SDS011;7076;51.280;12.584;2024-03-06T13:30:11;18.13;;;14.32;;
14001;SDS011;7076;51.280;12.584;2024-03-06T13:35:28;16.00;;;11.55;;
14001;SDS011;7076;51.280;12.584;2024-03-06T13:40:58;23.35;;;12.82;;
14001;SDS011;7076;51.280;12.584;2024-03-06T13:46:18;18.20;;;12.68;;
14001;SDS011;7076;51.280;12.584;2024-03-06T13:51:48;16.90;;;12.13;;
14001;SDS011;7076;51.280;12.584;2024-03-06T13:57:11;13.45;;;10.70;;
14001;SDS011;7076;51.280;12.584;2024-03-06T14:02:42;13.63;;;11.00;;
14001;SDS011;7076;51.280;12.584;2024-03-06T14:07:59;12.52;;;10.13;;
14001;SDS011;7076;51.280;12.584;2024-03-06T14:13:29;13.27;;;9.85;;
14001;SDS011;7076;51.280;12.584;2024-03-06T14:18:46;12.02;;;9.63;;
14001;SDS011;7076;51.280;12.584;2024-03-06T14:24:17;14.05;;;9.27;;
14001;SDS011;7076;51.280;12.584;2024-03-06T14:29:41;16.88;;;9.02;;
14001;SDS011;7076;51.280;12.584;2024-03-06T14:35:12;12.48;;;10.20;;
14001;SDS011;7076;51.280;12.584;2024-03-06T14:40:28;13.00;;;8.02;;
14001;SDS011;7076;51.280;12.584;2024-03-06T14:45:58;9.70;;;7.70;;
14001;SDS011;7076;51.280;12.584;2024-03-06T14:51:15;9.95;;;7.45;;
14001;SDS011;7076;51.280;12.584;2024-03-06T14:56:45;8.82;;;6.90;;
14001;SDS011;7076;51.280;12.584;2024-03-06T15:02:01;8.32;;;6.65;;
14001;SDS011;7076;51.280;12.584;2024-03-06T15:07:32;9.65;;;6.40;;
14001;SDS011;7076;51.280;12.584;2024-03-06T15:12:48;8.43;;;6.22;;
14001;SDS011;7076;51.280;12.584;2024-03-06T15:18:18;8.45;;;5.63;;
14001;SDS011;7076;51.280;12.584;2024-03-06T15:23:35;7.05;;;5.90;;
14001;SDS011;7076;51.280;12.584;2024-03-06T15:29:05;7.32;;;5.55;;
14001;SDS011;7076;51.280;12.584;2024-03-06T15:34:21;6.63;;;5.57;;
14001;SDS011;7076;51.280;12.584;2024-03-06T15:39:52;8.45;;;5.53;;
14001;SDS011;7076;51.280;12.584;2024-03-06T15:45:10;6.85;;;4.90;;
14001;SDS011;7076;51.280;12.584;2024-03-06T15:50:41;6.70;;;4.72;;
14001;SDS011;7076;51.280;12.584;2024-03-06T15:55:58;7.15;;;4.90;;
14001;SDS011;7076;51.280;12.584;2024-03-06T16:01:28;5.82;;;4.55;;
14001;SDS011;7076;51.280;12.584;2024-03-06T16:06:51;5.72;;;4.25;;
14001;SDS011;7076;51.280;12.584;2024-03-06T16:12:22;7.25;;;4.22;;
14001;SDS011;7076;51.280;12.584;2024-03-06T16:17:39;5.88;;;3.72;;
14001;SDS011;7076;51.280;12.584;2024-03-06T16:23:09;5.70;;;3.97;;
14001;SDS011;7076;51.280;12.584;2024-03-06T16:28:33;5.55;;;4.20;;
14001;SDS011;7076;51.280;12.584;2024-03-06T16:34:03;5.05;;;4.13;;
14001;SDS011;7076;51.280;12.584;2024-03-06T16:39:19;5.00;;;3.95;;
14001;SDS011;7076;51.280;12.584;2024-03-06T16:44:50;6.15;;;3.65;;
14001;SDS011;7076;51.280;12.584;2024-03-06T16:50:06;4.78;;;4.07;;
14001;SDS011;7076;51.280;12.584;2024-03-06T16:55:37;3.50;;;3.13;;
14001;SDS011;7076;51.280;12.584;2024-03-06T17:00:54;4.38;;;3.55;;
14001;SDS011;7076;51.280;12.584;2024-03-06T17:06:25;6.30;;;4.22;;
14001;SDS011;7076;51.280;12.584;2024-03-06T17:11:43;8.05;;;6.03;;
14001;SDS011;7076;51.280;12.584;2024-03-06T17:17:14;5.65;;;4.22;;
14001;SDS011;7076;51.280;12.584;2024-03-06T17:22:31;4.63;;;4.15;;
14001;SDS011;7076;51.280;12.584;2024-03-06T17:28:01;5.43;;;4.05;;
14001;SDS011;7076;51.280;12.584;2024-03-06T17:33:32;5.50;;;4.72;;
14001;SDS011;7076;51.280;12.584;2024-03-06T17:38:48;5.10;;;4.10;;
14001;SDS011;7076;51.280;12.584;2024-03-06T17:44:19;4.65;;;4.07;;
14001;SDS011;7076;51.280;12.584;2024-03-06T17:49:38;5.55;;;4.47;;
14001;SDS011;7076;51.280;12.584;2024-03-06T17:55:08;5.60;;;4.65;;
14001;SDS011;7076;51.280;12.584;2024-03-06T18:00:24;5.30;;;4.13;;
14001;SDS011;7076;51.280;12.584;2024-03-06T18:05:55;5.97;;;4.10;;
14001;SDS011;7076;51.280;12.584;2024-03-06T18:11:11;5.63;;;4.57;;
14001;SDS011;7076;51.280;12.584;2024-03-06T18:16:42;5.82;;;4.13;;
14001;SDS011;7076;51.280;12.584;2024-03-06T18:22:00;6.10;;;4.43;;
14001;SDS011;7076;51.280;12.584;2024-03-06T18:27:35;6.70;;;4.78;;
14001;SDS011;7076;51.280;12.584;2024-03-06T18:32:51;7.75;;;5.60;;
14001;SDS011;7076;51.280;12.584;2024-03-06T18:38:22;6.85;;;4.65;;
14001;SDS011;7076;51.280;12.584;2024-03-06T18:43:38;6.95;;;4.82;;
14001;SDS011;7076;51.280;12.584;2024-03-06T18:49:08;8.35;;;4.97;;
14001;SDS011;7076;51.280;12.584;2024-03-06T18:54:27;6.90;;;5.18;;
14001;SDS011;7076;51.280;12.584;2024-03-06T18:59:57;7.80;;;5.15;;
14001;SDS011;7076;51.280;12.584;2024-03-06T19:05:13;8.00;;;4.97;;
14001;SDS011;7076;51.280;12.584;2024-03-06T19:10:44;6.10;;;5.15;;
14001;SDS011;7076;51.280;12.584;2024-03-06T19:16:01;5.78;;;4.53;;
14001;SDS011;7076;51.280;12.584;2024-03-06T19:21:31;7.18;;;4.90;;
14001;SDS011;7076;51.280;12.584;2024-03-06T19:26:49;10.88;;;5.60;;
14001;SDS011;7076;51.280;12.584;2024-03-06T19:32:19;7.45;;;5.45;;
14001;SDS011;7076;51.280;12.584;2024-03-06T19:38:00;7.90;;;4.93;;
14001;SDS011;7076;51.280;12.584;2024-03-06T19:43:31;7.93;;;5.30;;
14001;SDS011;7076;51.280;12.584;2024-03-06T19:48:51;8.95;;;5.63;;
14001;SDS011;7076;51.280;12.584;2024-03-06T19:54:21;9.38;;;5.35;;
14001;SDS011;7076;51.280;12.584;2024-03-06T19:59:39;8.05;;;5.45;;
14001;SDS011;7076;51.280;12.584;2024-03-06T20:05:18;8.23;;;5.63;;
14001;SDS011;7076;51.280;12.584;2024-03-06T20:10:34;9.15;;;5.97;;
14001;SDS011;7076;51.280;12.584;2024-03-06T20:16:05;9.23;;;6.05;;
14001;SDS011;7076;51.280;12.584;2024-03-06T20:21:22;9.15;;;6.00;;
14001;SDS011;7076;51.280;12.584;2024-03-06T20:26:52;9.95;;;6.63;;
14001;SDS011;7076;51.280;12.584;2024-03-06T20:32:09;10.23;;;6.22;;
14001;SDS011;7076;51.280;12.584;2024-03-06T20:37:39;8.90;;;6.20;;
14001;SDS011;7076;51.280;12.584;2024-03-06T20:43:02;8.48;;;6.00;;
14001;SDS011;7076;51.280;12.584;2024-03-06T20:48:33;8.85;;;6.28;;
14001;SDS011;7076;51.280;12.584;2024-03-06T20:53:50;8.55;;;5.97;;
14001;SDS011;7076;51.280;12.584;2024-03-06T20:59:21;10.35;;;6.10;;
14001;SDS011;7076;51.280;12.584;2024-03-06T21:04:39;9.90;;;6.32;;
14001;SDS011;7076;51.280;12.584;2024-03-06T21:10:09;8.02;;;5.63;;
14001;SDS011;7076;51.280;12.584;2024-03-06T21:15:29;10.38;;;6.30;;
14001;SDS011;7076;51.280;12.584;2024-03-06T21:21:00;9.50;;;5.78;;
14001;SDS011;7076;51.280;12.584;2024-03-06T21:26:18;9.95;;;6.30;;
14001;SDS011;7076;51.280;12.584;2024-03-06T21:31:48;9.05;;;6.15;;
14001;SDS011;7076;51.280;12.584;2024-03-06T21:37:05;12.88;;;7.00;;
14001;SDS011;7076;51.280;12.584;2024-03-06T21:42:35;7.80;;;5.88;;
14001;SDS011;7076;51.280;12.584;2024-03-06T21:47:51;7.07;;;5.63;;
14001;SDS011;7076;51.280;12.584;2024-03-06T21:53:22;8.05;;;5.50;;
14001;SDS011;7076;51.280;12.584;2024-03-06T21:58:45;7.93;;;5.85;;
14001;SDS011;7076;51.280;12.584;2024-03-06T22:04:15;8.20;;;6.43;;
14001;SDS011;7076;51.280;12.584;2024-03-06T22:09:32;11.20;;;6.35;;
14001;SDS011;7076;51.280;12.584;2024-03-06T22:15:02;11.93;;;5.68;;
14001;SDS011;7076;51.280;12.584;2024-03-06T22:20:32;9.63;;;5.68;;
14001;SDS011;7076;51.280;12.584;2024-03-06T22:25:49;10.50;;;7.07;;
14001;SDS011;7076;51.280;12.584;2024-03-06T22:31:19;11.35;;;6.65;;
14001;SDS011;7076;51.280;12.584;2024-03-06T22:36:35;10.90;;;6.70;;
14001;SDS011;7076;51.280;12.584;2024-03-06T22:42:06;9.73;;;6.82;;
14001;SDS011;7076;51.280;12.584;2024-03-06T22:47:30;9.82;;;6.10;;
14001;SDS011;7076;51.280;12.584;2024-03-06T22:53:00;10.40;;;7.40;;
14001;SDS011;7076;51.280;12.584;2024-03-06T22:58:18;10.57;;;6.65;;
14001;SDS011;7076;51.280;12.584;2024-03-06T23:03:48;10.73;;;6.50;;
14001;SDS011;7076;51.280;12.584;2024-03-06T23:09:04;10.32;;;6.82;;
14001;SDS011;7076;51.280;12.584;2024-03-06T23:14:36;8.57;;;6.13;;
14001;SDS011;7076;51.280;12.584;2024-03-06T23:19:54;8.80;;;6.55;;
14001;SDS011;7076;51.280;12.584;2024-03-06T23:25:26;12.60;;;8.00;;
14001;SDS011;7076;51.280;12.584;2024-03-06T23:30:43;19.83;;;9.88;;
14001;SDS011;7076;51.280;12.584;2024-03-06T23:36:13;24.00;;;9.80;;
14001;SDS011;7076;51.280;12.584;2024-03-06T23:41:29;21.23;;;11.02;;
14001;SDS011;7076;51.280;12.584;2024-03-06T23:47:00;21.75;;;11.77;;
14001;SDS011;7076;51.280;12.584;2024-03-06T23:52:16;25.48;;;12.77;;
14001;SDS011;7076;51.280;12.584;2024-03-06T23:57:40;30.23;;;14.77;;
